sensor_id;sensor_type;location;lat;lon;timestamp;P1;P2;P0
29460;PMS7003;16428;47.836;35.106;2023-05-07T00:01:03;14.25;11.75;10.50
29460;PMS7003;16428;47.836;35.106;2023-05-07T00:03:33;14.75;12.25;8.75
29460;PMS7003;16428;47.836;35.106;2023-05-07T00:06:00;14.00;12.00;8.00
29460;PMS7003;16428;47.836;35.106;2023-05-07T00:08:28;14.25;12.75;9.50
29460;PMS7003;16428;47.836;35.106;2023-05-07T00:10:56;17.50;15.00;10.25
29460;PMS7003;16428;47.836;35.106;2023-05-07T00:13:24;17.75;13.25;12.00
29460;PMS7003;16428;47.836;35.106;2023-05-07T00:15:51;13.00;11.25;9.75
29460;PMS7003;16428;47.836;35.106;2023-05-07T00:18:19;11.00;10.50;8.75
29460;PMS7003;16428;47.836;35.106;2023-05-07T00:20:49;19.50;13.25;9.75
29460;PMS7003;16428;47.836;35.106;2023-05-07T00:23:17;12.00;11.25;7.00
29460;PMS7003;16428;47.836;35.106;2023-05-07T00:25:44;21.50;21.50;17.50
29460;PMS7003;16428;47.836;35.106;2023-05-07T00:28:12;13.25;12.00;9.75
29460;PMS7003;16428;47.836;35.106;2023-05-07T00:30:39;12.75;11.75;9.25
29460;PMS7003;16428;47.836;35.106;2023-05-07T00:33:07;24.75;23.00;16.75
29460;PMS7003;16428;47.836;35.106;2023-05-07T00:35:34;20.75;19.00;14.25
29460;PMS7003;16428;47.836;35.106;2023-05-07T00:38:02;27.25;21.25;15.50
29460;PMS7003;16428;47.836;35.106;2023-05-07T00:40:30;34.50;30.75;22.00
29460;PMS7003;16428;47.836;35.106;2023-05-07T00:42:57;32.75;30.75;20.25
29460;PMS7003;16428;47.836;35.106;2023-05-07T00:45:27;26.25;22.50;15.25
29460;PMS7003;16428;47.836;35.106;2023-05-07T00:47:56;23.50;21.50;15.25
29460;PMS7003;16428;47.836;35.106;2023-05-07T00:50:26;30.25;26.00;16.75
29460;PMS7003;16428;47.836;35.106;2023-05-07T00:52:54;28.00;25.25;17.00
29460;PMS7003;16428;47.836;35.106;2023-05-07T00:55:22;25.25;18.25;15.50
29460;PMS7003;16428;47.836;35.106;2023-05-07T00:57:50;8.25;6.00;5.00
29460;PMS7003;16428;47.836;35.106;2023-05-07T01:00:18;20.75;18.50;12.75
29460;PMS7003;16428;47.836;35.106;2023-05-07T01:02:46;24.00;22.00;17.50
29460;PMS7003;16428;47.836;35.106;2023-05-07T01:05:15;26.25;22.25;17.50
29460;PMS7003;16428;47.836;35.106;2023-05-07T01:07:46;28.50;26.25;20.00
29460;PMS7003;16428;47.836;35.106;2023-05-07T01:10:15;26.00;23.50;16.00
29460;PMS7003;16428;47.836;35.106;2023-05-07T01:12:43;30.25;24.00;14.75
29460;PMS7003;16428;47.836;35.106;2023-05-07T01:15:14;22.25;21.00;15.00
29460;PMS7003;16428;47.836;35.106;2023-05-07T01:17:42;25.50;21.50;15.50
29460;PMS7003;16428;47.836;35.106;2023-05-07T01:20:10;21.50;19.75;14.25
29460;PMS7003;16428;47.836;35.106;2023-05-07T01:22:39;24.50;20.00;15.00
29460;PMS7003;16428;47.836;35.106;2023-05-07T01:25:07;24.75;21.00;13.75
29460;PMS7003;16428;47.836;35.106;2023-05-07T01:27:35;27.00;26.00;19.75
29460;PMS7003;16428;47.836;35.106;2023-05-07T01:30:04;25.25;19.75;14.75
29460;PMS7003;16428;47.836;35.106;2023-05-07T01:32:37;34.50;27.25;20.25
29460;PMS7003;16428;47.836;35.106;2023-05-07T01:35:11;28.75;23.25;17.75
29460;PMS7003;16428;47.836;35.106;2023-05-07T01:37:40;33.50;31.00;21.50
29460;PMS7003;16428;47.836;35.106;2023-05-07T01:40:08;32.00;27.75;18.50
29460;PMS7003;16428;47.836;35.106;2023-05-07T01:42:38;44.00;37.50;24.50
29460;PMS7003;16428;47.836;35.106;2023-05-07T01:45:06;50.75;37.50;26.00
29460;PMS7003;16428;47.836;35.106;2023-05-07T01:47:35;38.75;33.75;22.25
29460;PMS7003;16428;47.836;35.106;2023-05-07T01:50:05;47.00;39.00;23.75
29460;PMS7003;16428;47.836;35.106;2023-05-07T01:52:39;53.00;40.25;27.50
29460;PMS7003;16428;47.836;35.106;2023-05-07T01:55:07;47.50;37.00;25.75
29460;PMS7003;16428;47.836;35.106;2023-05-07T01:57:36;45.50;35.00;25.50
29460;PMS7003;16428;47.836;35.106;2023-05-07T02:00:03;57.00;45.50;30.50
29460;PMS7003;16428;47.836;35.106;2023-05-07T02:02:32;52.75;41.75;25.00
29460;PMS7003;16428;47.836;35.106;2023-05-07T02:05:00;71.50;51.75;32.25
29460;PMS7003;16428;47.836;35.106;2023-05-07T02:07:28;75.75;56.25;35.25
29460;PMS7003;16428;47.836;35.106;2023-05-07T02:09:56;69.00;54.50;35.25
29460;PMS7003;16428;47.836;35.106;2023-05-07T02:12:23;63.25;46.25;29.75
29460;PMS7003;16428;47.836;35.106;2023-05-07T02:14:51;55.75;44.50;28.75
29460;PMS7003;16428;47.836;35.106;2023-05-07T02:17:18;55.00;41.50;26.75
29460;PMS7003;16428;47.836;35.106;2023-05-07T02:19:46;35.75;30.00;18.75
29460;PMS7003;16428;47.836;35.106;2023-05-07T02:22:13;46.50;35.00;22.00
29460;PMS7003;16428;47.836;35.106;2023-05-07T02:24:41;43.25;35.75;23.75
29460;PMS7003;16428;47.836;35.106;2023-05-07T02:27:08;28.25;22.25;17.75
29460;PMS7003;16428;47.836;35.106;2023-05-07T02:29:35;28.00;20.25;12.75
29460;PMS7003;16428;47.836;35.106;2023-05-07T02:32:03;21.50;20.25;15.25
29460;PMS7003;16428;47.836;35.106;2023-05-07T02:34:31;17.75;10.25;7.00
29460;PMS7003;16428;47.836;35.106;2023-05-07T02:36:58;17.50;12.50;10.50
29460;PMS7003;16428;47.836;35.106;2023-05-07T02:39:25;15.25;11.75;9.25
29460;PMS7003;16428;47.836;35.106;2023-05-07T02:41:53;20.00;17.75;13.50
29460;PMS7003;16428;47.836;35.106;2023-05-07T02:44:20;27.75;23.50;17.75
29460;PMS7003;16428;47.836;35.106;2023-05-07T02:46:48;37.75;30.50;19.75
29460;PMS7003;16428;47.836;35.106;2023-05-07T02:49:15;43.00;36.50;25.00
29460;PMS7003;16428;47.836;35.106;2023-05-07T02:51:42;43.00;36.50;25.00
29460;PMS7003;16428;47.836;35.106;2023-05-07T02:54:10;49.75;37.00;25.75
29460;PMS7003;16428;47.836;35.106;2023-05-07T02:56:37;33.50;31.00;21.75
29460;PMS7003;16428;47.836;35.106;2023-05-07T02:59:04;37.50;28.25;19.75
29460;PMS7003;16428;47.836;35.106;2023-05-07T03:01:32;33.75;25.25;19.75
29460;PMS7003;16428;47.836;35.106;2023-05-07T03:04:01;36.00;26.00;18.00
29460;PMS7003;16428;47.836;35.106;2023-05-07T03:06:29;23.25;22.00;17.00
29460;PMS7003;16428;47.836;35.106;2023-05-07T03:08:57;23.25;23.25;18.00
29460;PMS7003;16428;47.836;35.106;2023-05-07T03:11:24;24.25;23.00;16.50
29460;PMS7003;16428;47.836;35.106;2023-05-07T03:13:52;32.00;28.75;19.75
29460;PMS7003;16428;47.836;35.106;2023-05-07T03:16:19;37.75;31.00;19.75
29460;PMS7003;16428;47.836;35.106;2023-05-07T03:18:47;24.25;19.75;14.25
29460;PMS7003;16428;47.836;35.106;2023-05-07T03:21:15;17.75;17.75;13.00
29460;PMS7003;16428;47.836;35.106;2023-05-07T03:23:42;18.50;15.25;11.00
29460;PMS7003;16428;47.836;35.106;2023-05-07T03:26:09;19.50;18.50;11.25
29460;PMS7003;16428;47.836;35.106;2023-05-07T03:28:37;11.25;11.25;9.00
29460;PMS7003;16428;47.836;35.106;2023-05-07T03:31:04;15.00;10.75;9.50
29460;PMS7003;16428;47.836;35.106;2023-05-07T03:33:32;28.25;26.25;15.25
29460;PMS7003;16428;47.836;35.106;2023-05-07T03:36:01;15.75;14.50;10.50
29460;PMS7003;16428;47.836;35.106;2023-05-07T03:38:29;38.75;28.00;18.25
29460;PMS7003;16428;47.836;35.106;2023-05-07T03:40:56;21.75;20.75;14.25
29460;PMS7003;16428;47.836;35.106;2023-05-07T03:43:24;32.75;25.00;19.50
29460;PMS7003;16428;47.836;35.106;2023-05-07T03:45:51;39.00;30.00;23.00
29460;PMS7003;16428;47.836;35.106;2023-05-07T03:48:19;38.50;30.50;21.50
29460;PMS7003;16428;47.836;35.106;2023-05-07T03:50:46;51.00;40.50;27.25
29460;PMS7003;16428;47.836;35.106;2023-05-07T03:53:15;55.25;42.00;29.75
29460;PMS7003;16428;47.836;35.106;2023-05-07T03:55:42;50.50;35.00;21.75
29460;PMS7003;16428;47.836;35.106;2023-05-07T04:02:28;52.50;40.75;26.25
29460;PMS7003;16428;47.836;35.106;2023-05-07T04:04:55;61.50;43.50;29.00
29460;PMS7003;16428;47.836;35.106;2023-05-07T04:07:23;33.50;28.75;16.25
29460;PMS7003;16428;47.836;35.106;2023-05-07T04:09:50;58.25;42.75;27.00
29460;PMS7003;16428;47.836;35.106;2023-05-07T04:12:18;56.00;44.50;29.50
29460;PMS7003;16428;47.836;35.106;2023-05-07T04:14:45;52.50;41.00;28.75
29460;PMS7003;16428;47.836;35.106;2023-05-07T04:17:13;46.75;38.00;26.25
29460;PMS7003;16428;47.836;35.106;2023-05-07T04:19:40;34.00;31.75;21.75
29460;PMS7003;16428;47.836;35.106;2023-05-07T04:22:12;26.50;23.50;13.50
29460;PMS7003;16428;47.836;35.106;2023-05-07T04:24:39;35.00;26.00;19.00
29460;PMS7003;16428;47.836;35.106;2023-05-07T04:27:07;20.00;20.00;14.25
29460;PMS7003;16428;47.836;35.106;2023-05-07T04:29:34;41.50;35.50;23.50
29460;PMS7003;16428;47.836;35.106;2023-05-07T04:32:02;23.25;20.25;16.50
29460;PMS7003;16428;47.836;35.106;2023-05-07T04:34:29;23.00;18.50;14.00
29460;PMS7003;16428;47.836;35.106;2023-05-07T04:36:58;30.00;22.75;15.75
29460;PMS7003;16428;47.836;35.106;2023-05-07T04:39:26;33.50;25.00;19.50
29460;PMS7003;16428;47.836;35.106;2023-05-07T04:41:53;27.00;24.50;16.75
29460;PMS7003;16428;47.836;35.106;2023-05-07T04:47:08;18.75;18.75;15.00
29460;PMS7003;16428;47.836;35.106;2023-05-07T04:49:37;39.75;32.00;20.50
29460;PMS7003;16428;47.836;35.106;2023-05-07T04:52:05;28.25;27.75;19.25
29460;PMS7003;16428;47.836;35.106;2023-05-07T04:54:32;34.50;27.75;18.25
29460;PMS7003;16428;47.836;35.106;2023-05-07T04:56:59;15.25;12.25;9.00
29460;PMS7003;16428;47.836;35.106;2023-05-07T04:59:27;18.75;16.25;11.00
29460;PMS7003;16428;47.836;35.106;2023-05-07T05:01:54;14.75;14.75;11.00
29460;PMS7003;16428;47.836;35.106;2023-05-07T05:04:23;33.50;31.25;20.75
29460;PMS7003;16428;47.836;35.106;2023-05-07T05:06:51;41.50;34.50;22.75
29460;PMS7003;16428;47.836;35.106;2023-05-07T05:09:18;26.00;18.50;11.00
29460;PMS7003;16428;47.836;35.106;2023-05-07T05:11:46;17.25;10.00;7.00
29460;PMS7003;16428;47.836;35.106;2023-05-07T05:14:13;14.25;14.25;9.75
29460;PMS7003;16428;47.836;35.106;2023-05-07T05:16:41;20.00;12.25;9.50
29460;PMS7003;16428;47.836;35.106;2023-05-07T05:19:08;9.00;8.00;6.25
29460;PMS7003;16428;47.836;35.106;2023-05-07T05:21:36;11.75;9.75;7.75
29460;PMS7003;16428;47.836;35.106;2023-05-07T05:24:03;9.75;7.25;6.00
29460;PMS7003;16428;47.836;35.106;2023-05-07T05:26:31;3.00;2.00;1.00
29460;PMS7003;16428;47.836;35.106;2023-05-07T05:28:59;6.75;6.00;5.00
29460;PMS7003;16428;47.836;35.106;2023-05-07T05:31:26;7.33;5.00;4.00
29460;PMS7003;16428;47.836;35.106;2023-05-07T05:33:54;4.00;4.00;4.00
29460;PMS7003;16428;47.836;35.106;2023-05-07T05:36:21;3.00;3.00;3.00
29460;PMS7003;16428;47.836;35.106;2023-05-07T05:38:49;5.00;5.00;4.00
29460;PMS7003;16428;47.836;35.106;2023-05-07T05:41:16;6.00;6.00;5.00
29460;PMS7003;16428;47.836;35.106;2023-05-07T05:43:44;5.67;5.67;5.00
29460;PMS7003;16428;47.836;35.106;2023-05-07T05:46:11;5.33;5.33;4.67
29460;PMS7003;16428;47.836;35.106;2023-05-07T05:48:39;7.00;7.00;4.67
29460;PMS7003;16428;47.836;35.106;2023-05-07T05:51:06;10.33;4.33;4.33
29460;PMS7003;16428;47.836;35.106;2023-05-07T05:53:34;4.33;4.33;3.33
29460;PMS7003;16428;47.836;35.106;2023-05-07T05:56:02;5.33;4.67;3.33
29460;PMS7003;16428;47.836;35.106;2023-05-07T05:58:30;5.33;5.33;4.33
29460;PMS7003;16428;47.836;35.106;2023-05-07T06:00:58;5.33;5.33;5.00
29460;PMS7003;16428;47.836;35.106;2023-05-07T06:03:25;5.33;5.33;5.00
29460;PMS7003;16428;47.836;35.106;2023-05-07T06:05:53;4.67;4.67;4.33
29460;PMS7003;16428;47.836;35.106;2023-05-07T06:08:20;5.67;5.00;4.33
29460;PMS7003;16428;47.836;35.106;2023-05-07T06:10:48;6.00;6.00;6.00
29460;PMS7003;16428;47.836;35.106;2023-05-07T06:13:16;7.00;6.75;5.75
29460;PMS7003;16428;47.836;35.106;2023-05-07T06:15:43;5.50;4.25;3.00
29460;PMS7003;16428;47.836;35.106;2023-05-07T06:18:11;4.00;4.00;4.00
29460;PMS7003;16428;47.836;35.106;2023-05-07T06:20:38;6.75;4.50;3.50
29460;PMS7003;16428;47.836;35.106;2023-05-07T06:23:06;5.50;5.50;4.75
29460;PMS7003;16428;47.836;35.106;2023-05-07T06:25:34;6.00;6.00;5.00
29460;PMS7003;16428;47.836;35.106;2023-05-07T06:28:01;6.00;6.00;6.00
29460;PMS7003;16428;47.836;35.106;2023-05-07T06:30:29;6.00;6.00;5.75
29460;PMS7003;16428;47.836;35.106;2023-05-07T06:32:57;9.25;7.75;5.25
29460;PMS7003;16428;47.836;35.106;2023-05-07T06:35:24;7.75;6.25;5.50
29460;PMS7003;16428;47.836;35.106;2023-05-07T06:37:52;9.25;7.50;6.00
29460;PMS7003;16428;47.836;35.106;2023-05-07T06:40:19;8.75;6.25;5.75
29460;PMS7003;16428;47.836;35.106;2023-05-07T06:42:47;6.25;4.50;4.00
29460;PMS7003;16428;47.836;35.106;2023-05-07T06:45:15;3.25;3.25;2.00
29460;PMS7003;16428;47.836;35.106;2023-05-07T06:47:42;5.50;5.50;4.25
29460;PMS7003;16428;47.836;35.106;2023-05-07T06:50:10;5.00;5.00;4.25
29460;PMS7003;16428;47.836;35.106;2023-05-07T06:52:38;5.00;4.75;4.50
29460;PMS7003;16428;47.836;35.106;2023-05-07T06:55:06;5.50;5.50;5.00
29460;PMS7003;16428;47.836;35.106;2023-05-07T06:57:34;5.25;5.25;4.25
29460;PMS7003;16428;47.836;35.106;2023-05-07T07:00:01;4.00;4.00;3.25
29460;PMS7003;16428;47.836;35.106;2023-05-07T07:02:29;4.75;3.25;3.25
29460;PMS7003;16428;47.836;35.106;2023-05-07T07:04:57;1.50;0.75;0.75
29460;PMS7003;16428;47.836;35.106;2023-05-07T07:07:25;11.75;7.00;5.00
29460;PMS7003;16428;47.836;35.106;2023-05-07T07:09:52;7.50;6.75;5.75
29460;PMS7003;16428;47.836;35.106;2023-05-07T07:12:29;12.00;12.00;10.00
29460;PMS7003;16428;47.836;35.106;2023-05-07T07:14:57;9.50;9.50;8.75
29460;PMS7003;16428;47.836;35.106;2023-05-07T07:17:24;3.50;3.50;3.50
29460;PMS7003;16428;47.836;35.106;2023-05-07T07:19:52;5.25;5.00;4.50
29460;PMS7003;16428;47.836;35.106;2023-05-07T07:22:19;9.00;9.00;6.50
29460;PMS7003;16428;47.836;35.106;2023-05-07T07:24:47;9.00;6.25;5.25
29460;PMS7003;16428;47.836;35.106;2023-05-07T07:27:14;3.00;3.00;3.00
29460;PMS7003;16428;47.836;35.106;2023-05-07T07:29:41;11.50;11.50;10.00
29460;PMS7003;16428;47.836;35.106;2023-05-07T07:32:09;8.75;7.00;6.00
29460;PMS7003;16428;47.836;35.106;2023-05-07T07:34:37;4.50;4.50;4.00
29460;PMS7003;16428;47.836;35.106;2023-05-07T07:37:04;7.50;6.00;4.75
29460;PMS7003;16428;47.836;35.106;2023-05-07T07:39:33;10.25;9.00;7.75
29460;PMS7003;16428;47.836;35.106;2023-05-07T07:42:01;12.75;10.75;8.75
29460;PMS7003;16428;47.836;35.106;2023-05-07T07:44:28;22.25;16.25;12.25
29460;PMS7003;16428;47.836;35.106;2023-05-07T07:46:55;9.25;6.00;5.50
29460;PMS7003;16428;47.836;35.106;2023-05-07T07:49:23;15.00;12.50;10.25
29460;PMS7003;16428;47.836;35.106;2023-05-07T07:51:50;14.75;14.00;10.75
29460;PMS7003;16428;47.836;35.106;2023-05-07T07:54:18;10.00;7.75;6.75
29460;PMS7003;16428;47.836;35.106;2023-05-07T07:56:45;4.00;4.00;3.00
29460;PMS7003;16428;47.836;35.106;2023-05-07T07:59:13;24.50;15.25;12.25
29460;PMS7003;16428;47.836;35.106;2023-05-07T08:01:44;13.50;13.50;11.50
29460;PMS7003;16428;47.836;35.106;2023-05-07T08:04:12;8.25;8.25;6.75
29460;PMS7003;16428;47.836;35.106;2023-05-07T08:06:39;5.25;5.25;4.50
29460;PMS7003;16428;47.836;35.106;2023-05-07T08:09:07;3.25;3.25;3.25
29460;PMS7003;16428;47.836;35.106;2023-05-07T08:11:35;5.75;5.75;5.00
29460;PMS7003;16428;47.836;35.106;2023-05-07T08:14:03;3.50;3.50;3.00
29460;PMS7003;16428;47.836;35.106;2023-05-07T08:16:30;7.00;7.00;6.00
29460;PMS7003;16428;47.836;35.106;2023-05-07T08:18:58;6.50;6.50;5.50
29460;PMS7003;16428;47.836;35.106;2023-05-07T08:21:25;5.25;5.25;3.75
29460;PMS7003;16428;47.836;35.106;2023-05-07T08:23:53;6.00;6.00;5.75
29460;PMS7003;16428;47.836;35.106;2023-05-07T08:26:20;4.75;4.75;4.00
29460;PMS7003;16428;47.836;35.106;2023-05-07T08:28:47;6.00;5.50;3.75
29460;PMS7003;16428;47.836;35.106;2023-05-07T08:31:15;11.50;9.00;8.00
29460;PMS7003;16428;47.836;35.106;2023-05-07T08:33:43;14.75;12.25;9.25
29460;PMS7003;16428;47.836;35.106;2023-05-07T08:36:11;9.00;7.75;7.00
29460;PMS7003;16428;47.836;35.106;2023-05-07T08:38:39;6.60;5.40;5.00
29460;PMS7003;16428;47.836;35.106;2023-05-07T08:41:10;12.50;9.75;7.00
29460;PMS7003;16428;47.836;35.106;2023-05-07T08:43:38;14.50;14.25;12.00
29460;PMS7003;16428;47.836;35.106;2023-05-07T08:46:09;14.00;9.25;8.00
29460;PMS7003;16428;47.836;35.106;2023-05-07T08:48:38;6.00;5.25;5.00
29460;PMS7003;16428;47.836;35.106;2023-05-07T08:51:06;3.00;3.00;3.00
29460;PMS7003;16428;47.836;35.106;2023-05-07T08:53:33;5.80;4.20;4.00
29460;PMS7003;16428;47.836;35.106;2023-05-07T08:56:02;2.60;2.60;2.00
29460;PMS7003;16428;47.836;35.106;2023-05-07T08:58:30;5.40;4.00;3.00
29460;PMS7003;16428;47.836;35.106;2023-05-07T09:00:57;5.00;5.00;4.20
29460;PMS7003;16428;47.836;35.106;2023-05-07T09:03:30;7.00;6.20;5.20
29460;PMS7003;16428;47.836;35.106;2023-05-07T09:05:57;3.80;3.80;2.80
29460;PMS7003;16428;47.836;35.106;2023-05-07T09:08:28;5.00;5.00;4.00
29460;PMS7003;16428;47.836;35.106;2023-05-07T09:10:56;17.00;15.50;12.00
29460;PMS7003;16428;47.836;35.106;2023-05-07T09:13:24;22.75;18.50;12.75
29460;PMS7003;16428;47.836;35.106;2023-05-07T09:15:52;18.25;18.00;13.00
29460;PMS7003;16428;47.836;35.106;2023-05-07T09:18:20;9.80;9.20;8.00
29460;PMS7003;16428;47.836;35.106;2023-05-07T09:20:47;11.60;10.00;8.40
29460;PMS7003;16428;47.836;35.106;2023-05-07T09:23:15;8.80;7.20;6.00
29460;PMS7003;16428;47.836;35.106;2023-05-07T09:25:42;13.00;12.75;9.00
29460;PMS7003;16428;47.836;35.106;2023-05-07T09:28:10;7.60;7.60;6.00
29460;PMS7003;16428;47.836;35.106;2023-05-07T09:30:37;18.00;17.50;15.00
29460;PMS7003;16428;47.836;35.106;2023-05-07T09:33:05;12.20;11.40;9.60
29460;PMS7003;16428;47.836;35.106;2023-05-07T09:35:32;13.20;13.00;9.00
29460;PMS7003;16428;47.836;35.106;2023-05-07T09:38:00;20.00;17.60;11.60
29460;PMS7003;16428;47.836;35.106;2023-05-07T09:40:30;23.80;19.00;14.80
29460;PMS7003;16428;47.836;35.106;2023-05-07T09:43:08;13.00;12.20;10.40
29460;PMS7003;16428;47.836;35.106;2023-05-07T09:45:40;16.60;14.40;9.60
29460;PMS7003;16428;47.836;35.106;2023-05-07T09:48:08;10.40;8.40;6.60
29460;PMS7003;16428;47.836;35.106;2023-05-07T09:50:47;6.00;3.60;3.60
29460;PMS7003;16428;47.836;35.106;2023-05-07T09:53:17;6.20;6.20;6.20
29460;PMS7003;16428;47.836;35.106;2023-05-07T09:55:44;10.20;10.20;8.80
29460;PMS7003;16428;47.836;35.106;2023-05-07T09:58:13;8.00;8.00;6.60
29460;PMS7003;16428;47.836;35.106;2023-05-07T10:00:43;5.00;5.00;4.00
29460;PMS7003;16428;47.836;35.106;2023-05-07T10:03:12;7.40;5.60;5.00
29460;PMS7003;16428;47.836;35.106;2023-05-07T10:05:41;6.60;4.80;3.80
29460;PMS7003;16428;47.836;35.106;2023-05-07T10:08:11;6.00;3.60;3.00
29460;PMS7003;16428;47.836;35.106;2023-05-07T10:10:39;8.60;6.20;4.00
29460;PMS7003;16428;47.836;35.106;2023-05-07T10:13:08;4.60;3.80;3.80
29460;PMS7003;16428;47.836;35.106;2023-05-07T10:15:37;4.00;4.00;3.00
29460;PMS7003;16428;47.836;35.106;2023-05-07T10:18:05;4.40;4.00;3.20
29460;PMS7003;16428;47.836;35.106;2023-05-07T10:20:34;2.00;2.00;2.00
29460;PMS7003;16428;47.836;35.106;2023-05-07T10:23:04;0.20;0.20;0.00
29460;PMS7003;16428;47.836;35.106;2023-05-07T10:25:33;4.00;3.40;3.00
29460;PMS7003;16428;47.836;35.106;2023-05-07T10:28:03;8.40;6.60;5.20
29460;PMS7003;16428;47.836;35.106;2023-05-07T10:33:09;5.60;4.80;4.00
29460;PMS7003;16428;47.836;35.106;2023-05-07T10:35:40;3.80;2.80;2.80
29460;PMS7003;16428;47.836;35.106;2023-05-07T10:38:09;4.00;4.00;3.40
29460;PMS7003;16428;47.836;35.106;2023-05-07T10:40:37;5.00;5.00;4.00
29460;PMS7003;16428;47.836;35.106;2023-05-07T10:43:05;12.80;12.80;11.00
29460;PMS7003;16428;47.836;35.106;2023-05-07T10:45:37;5.40;5.40;4.00
29460;PMS7003;16428;47.836;35.106;2023-05-07T10:48:09;4.00;4.00;3.80
29460;PMS7003;16428;47.836;35.106;2023-05-07T10:50:44;5.80;5.00;4.00
29460;PMS7003;16428;47.836;35.106;2023-05-07T10:55:46;9.20;5.40;4.00
29460;PMS7003;16428;47.836;35.106;2023-05-07T10:58:26;5.80;4.80;4.80
29460;PMS7003;16428;47.836;35.106;2023-05-07T11:00:57;8.00;7.00;5.00
29460;PMS7003;16428;47.836;35.106;2023-05-07T11:03:27;8.60;4.00;3.00
29460;PMS7003;16428;47.836;35.106;2023-05-07T11:11:19;6.00;6.00;6.00
29460;PMS7003;16428;47.836;35.106;2023-05-07T11:13:49;8.00;7.00;6.00
29460;PMS7003;16428;47.836;35.106;2023-05-07T11:18:52;4.20;3.80;3.60
29460;PMS7003;16428;47.836;35.106;2023-05-07T11:24:11;7.00;7.00;6.80
29460;PMS7003;16428;47.836;35.106;2023-05-07T11:26:42;5.00;5.00;3.80
29460;PMS7003;16428;47.836;35.106;2023-05-07T11:29:17;6.00;6.00;5.00
29460;PMS7003;16428;47.836;35.106;2023-05-07T11:31:51;3.80;3.20;2.80
29460;PMS7003;16428;47.836;35.106;2023-05-07T11:34:23;4.00;4.00;3.80
29460;PMS7003;16428;47.836;35.106;2023-05-07T11:36:53;4.80;4.80;4.20
29460;PMS7003;16428;47.836;35.106;2023-05-07T11:39:30;2.00;2.00;1.80
29460;PMS7003;16428;47.836;35.106;2023-05-07T11:42:02;3.00;3.00;3.00
29460;PMS7003;16428;47.836;35.106;2023-05-07T11:44:45;3.80;3.80;3.40
29460;PMS7003;16428;47.836;35.106;2023-05-07T11:47:17;4.00;2.40;2.20
29460;PMS7003;16428;47.836;35.106;2023-05-07T11:49:48;5.00;3.00;3.00
29460;PMS7003;16428;47.836;35.106;2023-05-07T11:52:19;3.20;3.20;3.00
29460;PMS7003;16428;47.836;35.106;2023-05-07T11:54:51;3.00;3.00;2.80
29460;PMS7003;16428;47.836;35.106;2023-05-07T11:57:20;3.00;3.00;2.60
29460;PMS7003;16428;47.836;35.106;2023-05-07T11:59:55;3.60;3.00;3.00
29460;PMS7003;16428;47.836;35.106;2023-05-07T12:02:26;3.00;3.00;2.80
29460;PMS7003;16428;47.836;35.106;2023-05-07T12:04:55;2.40;2.40;2.40
29460;PMS7003;16428;47.836;35.106;2023-05-07T12:07:23;2.80;1.80;1.80
29460;PMS7003;16428;47.836;35.106;2023-05-07T12:09:51;4.40;3.00;2.80
29460;PMS7003;16428;47.836;35.106;2023-05-07T12:12:19;10.40;7.60;7.00
29460;PMS7003;16428;47.836;35.106;2023-05-07T12:14:46;5.40;4.80;4.60
29460;PMS7003;16428;47.836;35.106;2023-05-07T12:17:14;11.40;10.20;8.60
29460;PMS7003;16428;47.836;35.106;2023-05-07T12:19:42;14.80;9.20;6.80
29460;PMS7003;16428;47.836;35.106;2023-05-07T12:22:11;5.20;4.40;3.60
29460;PMS7003;16428;47.836;35.106;2023-05-07T12:24:46;4.60;4.60;3.60
29460;PMS7003;16428;47.836;35.106;2023-05-07T12:27:15;2.20;2.20;1.40
29460;PMS7003;16428;47.836;35.106;2023-05-07T12:29:49;3.80;3.80;3.40
29460;PMS7003;16428;47.836;35.106;2023-05-07T12:32:17;2.60;2.60;2.00
29460;PMS7003;16428;47.836;35.106;2023-05-07T12:34:46;2.60;0.20;0.20
29460;PMS7003;16428;47.836;35.106;2023-05-07T12:37:16;2.80;2.80;2.80
29460;PMS7003;16428;47.836;35.106;2023-05-07T12:40:04;6.40;6.40;5.00
29460;PMS7003;16428;47.836;35.106;2023-05-07T12:42:36;13.20;8.20;6.60
29460;PMS7003;16428;47.836;35.106;2023-05-07T12:45:11;9.00;6.60;5.00
29460;PMS7003;16428;47.836;35.106;2023-05-07T12:47:44;8.40;7.00;5.00
29460;PMS7003;16428;47.836;35.106;2023-05-07T12:50:13;18.60;12.40;9.20
29460;PMS7003;16428;47.836;35.106;2023-05-07T12:52:42;21.20;18.20;12.60
29460;PMS7003;16428;47.836;35.106;2023-05-07T12:55:12;6.40;4.80;4.00
29460;PMS7003;16428;47.836;35.106;2023-05-07T12:57:43;2.80;2.80;2.20
29460;PMS7003;16428;47.836;35.106;2023-05-07T13:00:14;2.20;2.20;2.00
29460;PMS7003;16428;47.836;35.106;2023-05-07T13:02:43;7.60;7.40;6.20
29460;PMS7003;16428;47.836;35.106;2023-05-07T13:05:12;11.40;10.60;8.80
29460;PMS7003;16428;47.836;35.106;2023-05-07T13:07:40;3.80;3.80;3.00
29460;PMS7003;16428;47.836;35.106;2023-05-07T13:10:19;3.60;3.60;3.00
29460;PMS7003;16428;47.836;35.106;2023-05-07T13:12:47;9.00;8.60;6.00
29460;PMS7003;16428;47.836;35.106;2023-05-07T13:15:15;2.00;2.00;1.20
29460;PMS7003;16428;47.836;35.106;2023-05-07T13:17:43;5.00;5.00;4.60
29460;PMS7003;16428;47.836;35.106;2023-05-07T13:20:10;3.80;3.00;2.00
29460;PMS7003;16428;47.836;35.106;2023-05-07T13:22:40;4.00;3.00;2.00
29460;PMS7003;16428;47.836;35.106;2023-05-07T13:25:08;1.60;1.60;1.00
29460;PMS7003;16428;47.836;35.106;2023-05-07T13:27:36;1.80;1.80;1.60
29460;PMS7003;16428;47.836;35.106;2023-05-07T13:30:04;10.80;7.20;5.80
29460;PMS7003;16428;47.836;35.106;2023-05-07T13:32:33;13.80;13.80;10.80
29460;PMS7003;16428;47.836;35.106;2023-05-07T13:35:01;7.80;7.80;7.00
29460;PMS7003;16428;47.836;35.106;2023-05-07T13:37:28;4.60;4.60;3.00
29460;PMS7003;16428;47.836;35.106;2023-05-07T13:39:56;9.20;9.20;6.80
29460;PMS7003;16428;47.836;35.106;2023-05-07T13:42:23;9.20;7.80;6.00
29460;PMS7003;16428;47.836;35.106;2023-05-07T13:44:51;13.60;11.60;9.20
29460;PMS7003;16428;47.836;35.106;2023-05-07T13:47:18;2.00;2.00;1.20
29460;PMS7003;16428;47.836;35.106;2023-05-07T13:49:48;0.60;0.00;0.00
29460;PMS7003;16428;47.836;35.106;2023-05-07T13:52:16;4.80;4.80;3.60
29460;PMS7003;16428;47.836;35.106;2023-05-07T13:54:44;3.80;3.80;3.00
29460;PMS7003;16428;47.836;35.106;2023-05-07T13:57:11;1.00;1.00;0.60
29460;PMS7003;16428;47.836;35.106;2023-05-07T13:59:39;1.40;1.00;0.40
29460;PMS7003;16428;47.836;35.106;2023-05-07T14:02:07;1.00;0.40;0.40
29460;PMS7003;16428;47.836;35.106;2023-05-07T14:04:36;1.60;1.60;1.40
29460;PMS7003;16428;47.836;35.106;2023-05-07T14:07:04;1.60;1.40;1.00
29460;PMS7003;16428;47.836;35.106;2023-05-07T14:09:32;3.80;2.00;2.00
29460;PMS7003;16428;47.836;35.106;2023-05-07T14:11:59;1.20;1.20;1.00
29460;PMS7003;16428;47.836;35.106;2023-05-07T14:14:28;5.60;3.80;2.80
29460;PMS7003;16428;47.836;35.106;2023-05-07T14:16:56;4.00;2.00;1.80
29460;PMS7003;16428;47.836;35.106;2023-05-07T14:19:24;2.00;2.00;1.20
29460;PMS7003;16428;47.836;35.106;2023-05-07T14:21:52;2.60;2.60;2.00
29460;PMS7003;16428;47.836;35.106;2023-05-07T14:24:19;7.40;4.60;3.60